8FV YBAF-YDAY
Flight info
| Callsign | 8FV |
|---|---|
| Flight time | 0h 33m |
| Altitude | 8000 |
| Route | RUDEY OK |
| Aircraft | K100/L-SBDGRY/S |
Departure
| Time | 2026-04-30 10:39 |
|---|---|
| Airport | Brisbane Archerfield Airport (YBAF) |
Arrival
| Time | 2026-04-30 11:12 |
|---|---|
| Airport | Dalby Airport (YDAY) |
| Time | Latitude | Longitude | Altitude | Speed | Heading |
|---|---|---|---|---|---|
| 2026-04-30 10:29 | -27.57097 | 153.01333 | 50 ft | 0 kts | 313° |
| 2026-04-30 10:33 | -27.57096 | 153.01333 | 53 ft | 1 kts | 313° |
| 2026-04-30 10:33 | -27.57077 | 153.01289 | 51 ft | 8 kts | 284° |
| 2026-04-30 10:33 | -27.57066 | 153.01213 | 51 ft | 12 kts | 261° |
| 2026-04-30 10:34 | -27.57145 | 153.01170 | 50 ft | 15 kts | 191° |
| 2026-04-30 10:34 | -27.57220 | 153.01132 | 46 ft | 5 kts | 276° |
| 2026-04-30 10:34 | -27.57223 | 153.01118 | 46 ft | 0 kts | 146° |
| 2026-04-30 10:35 | -27.57228 | 153.01122 | 46 ft | 3 kts | 148° |
| 2026-04-30 10:35 | -27.57269 | 153.01134 | 43 ft | 10 kts | 186° |
| 2026-04-30 10:35 | -27.57337 | 153.01091 | 38 ft | 14 kts | 283° |
| 2026-04-30 10:36 | -27.57303 | 153.00974 | 39 ft | 17 kts | 288° |
| 2026-04-30 10:36 | -27.57266 | 153.00841 | 41 ft | 19 kts | 286° |
| 2026-04-30 10:36 | -27.57223 | 153.00690 | 42 ft | 21 kts | 288° |
| 2026-04-30 10:36 | -27.57176 | 153.00526 | 46 ft | 22 kts | 287° |
| 2026-04-30 10:37 | -27.57126 | 153.00350 | 43 ft | 26 kts | 288° |
| 2026-04-30 10:37 | -27.57068 | 153.00145 | 43 ft | 30 kts | 288° |
| 2026-04-30 10:37 | -27.56997 | 152.99893 | 42 ft | 39 kts | 287° |
| 2026-04-30 10:37 | -27.56950 | 152.99731 | 45 ft | 1 kts | 283° |
| 2026-04-30 10:38 | -27.56953 | 152.99715 | 46 ft | 4 kts | 239° |
| 2026-04-30 10:38 | -27.57017 | 152.99682 | 45 ft | 10 kts | 159° |
| 2026-04-30 10:38 | -27.57025 | 152.99697 | 45 ft | 0 kts | 108° |
| 2026-04-30 10:38 | -27.57109 | 152.99982 | 59 ft | 75 kts | 110° |
| 2026-04-30 10:39 | -27.57278 | 153.00587 | 452 ft | 81 kts | 114° |
| 2026-04-30 10:39 | -27.57462 | 153.01202 | 879 ft | 87 kts | 115° |
| 2026-04-30 10:39 | -27.57249 | 153.01858 | 1193 ft | 111 kts | 30° |
| 2026-04-30 10:39 | -27.56530 | 153.01553 | 1485 ft | 134 kts | 303° |
| 2026-04-30 10:40 | -27.56264 | 153.00464 | 1519 ft | 157 kts | 284° |
| 2026-04-30 10:40 | -27.55862 | 152.99242 | 1514 ft | 172 kts | 289° |
| 2026-04-30 10:40 | -27.55431 | 152.97947 | 1513 ft | 181 kts | 288° |
| 2026-04-30 10:40 | -27.54984 | 152.96603 | 1514 ft | 184 kts | 288° |
| 2026-04-30 10:41 | -27.54540 | 152.95250 | 1540 ft | 182 kts | 288° |
| 2026-04-30 10:41 | -27.54128 | 152.93977 | 2007 ft | 162 kts | 285° |
| 2026-04-30 10:41 | -27.53753 | 152.92874 | 2718 ft | 139 kts | 277° |
| 2026-04-30 10:41 | -27.53912 | 152.91922 | 3291 ft | 122 kts | 250° |
| 2026-04-30 10:42 | -27.53899 | 152.90952 | 3826 ft | 127 kts | 280° |
| 2026-04-30 10:42 | -27.53626 | 152.89992 | 4326 ft | 131 kts | 287° |
| 2026-04-30 10:42 | -27.53348 | 152.89021 | 4834 ft | 131 kts | 287° |
| 2026-04-30 10:42 | -27.53073 | 152.88038 | 5346 ft | 132 kts | 288° |
| 2026-04-30 10:43 | -27.52783 | 152.87052 | 5869 ft | 133 kts | 287° |
| 2026-04-30 10:43 | -27.52495 | 152.86057 | 6357 ft | 134 kts | 288° |
| 2026-04-30 10:43 | -27.52200 | 152.85060 | 6859 ft | 135 kts | 287° |
| 2026-04-30 10:43 | -27.51904 | 152.84054 | 7322 ft | 135 kts | 288° |
| 2026-04-30 10:44 | -27.51609 | 152.83052 | 7804 ft | 135 kts | 287° |
| 2026-04-30 10:44 | -27.51282 | 152.81981 | 8003 ft | 162 kts | 290° |
| 2026-04-30 10:44 | -27.50882 | 152.80713 | 8019 ft | 183 kts | 289° |
| 2026-04-30 10:44 | -27.50480 | 152.79313 | 8021 ft | 191 kts | 287° |
| 2026-04-30 10:45 | -27.50077 | 152.77874 | 8022 ft | 194 kts | 288° |
| 2026-04-30 10:45 | -27.49654 | 152.76427 | 8024 ft | 195 kts | 288° |
| 2026-04-30 10:45 | -27.49230 | 152.74977 | 8027 ft | 195 kts | 288° |
| 2026-04-30 10:45 | -27.48801 | 152.73524 | 8028 ft | 196 kts | 288° |
| 2026-04-30 10:46 | -27.48373 | 152.72066 | 8027 ft | 196 kts | 288° |
| 2026-04-30 10:46 | -27.47942 | 152.70610 | 8026 ft | 196 kts | 287° |
| 2026-04-30 10:46 | -27.47516 | 152.69173 | 8023 ft | 196 kts | 288° |
| 2026-04-30 10:46 | -27.47087 | 152.67717 | 8025 ft | 196 kts | 288° |
| 2026-04-30 10:47 | -27.46660 | 152.66263 | 8021 ft | 196 kts | 288° |
| 2026-04-30 10:47 | -27.46229 | 152.64809 | 8018 ft | 196 kts | 288° |
| 2026-04-30 10:47 | -27.45799 | 152.63356 | 8020 ft | 196 kts | 288° |
| 2026-04-30 10:47 | -27.45370 | 152.61906 | 8017 ft | 195 kts | 288° |
| 2026-04-30 10:48 | -27.44940 | 152.60457 | 8017 ft | 195 kts | 288° |
| 2026-04-30 10:48 | -27.44511 | 152.59008 | 8016 ft | 195 kts | 288° |
| 2026-04-30 10:48 | -27.44083 | 152.57559 | 8019 ft | 195 kts | 288° |
| 2026-04-30 10:48 | -27.43661 | 152.56129 | 8019 ft | 195 kts | 288° |
| 2026-04-30 10:49 | -27.43229 | 152.54675 | 8015 ft | 196 kts | 288° |
| 2026-04-30 10:49 | -27.42793 | 152.53217 | 8019 ft | 197 kts | 288° |
| 2026-04-30 10:49 | -27.42359 | 152.51757 | 8018 ft | 197 kts | 288° |
| 2026-04-30 10:49 | -27.41927 | 152.50291 | 8015 ft | 197 kts | 288° |
| 2026-04-30 10:50 | -27.41492 | 152.48826 | 8015 ft | 198 kts | 288° |
| 2026-04-30 10:50 | -27.41055 | 152.47359 | 8015 ft | 197 kts | 288° |
| 2026-04-30 10:50 | -27.40623 | 152.45892 | 8015 ft | 198 kts | 288° |
| 2026-04-30 10:50 | -27.40187 | 152.44426 | 8015 ft | 198 kts | 288° |
| 2026-04-30 10:51 | -27.39756 | 152.42978 | 8012 ft | 198 kts | 288° |
| 2026-04-30 10:51 | -27.39319 | 152.41509 | 8014 ft | 198 kts | 288° |
| 2026-04-30 10:51 | -27.38881 | 152.40041 | 8018 ft | 198 kts | 288° |
| 2026-04-30 10:51 | -27.38610 | 152.38538 | 8016 ft | 196 kts | 267° |
| 2026-04-30 10:52 | -27.38688 | 152.37011 | 8013 ft | 196 kts | 264° |
| 2026-04-30 10:52 | -27.38746 | 152.35482 | 8013 ft | 196 kts | 265° |
| 2026-04-30 10:52 | -27.38803 | 152.33953 | 8015 ft | 196 kts | 265° |
| 2026-04-30 10:52 | -27.38863 | 152.32425 | 8013 ft | 195 kts | 265° |
| 2026-04-30 10:53 | -27.38928 | 152.30917 | 8012 ft | 196 kts | 265° |
| 2026-04-30 10:53 | -27.38990 | 152.29387 | 8012 ft | 196 kts | 265° |
| 2026-04-30 10:53 | -27.39050 | 152.27861 | 8018 ft | 195 kts | 265° |
| 2026-04-30 10:53 | -27.39114 | 152.26341 | 8016 ft | 195 kts | 265° |
| 2026-04-30 10:54 | -27.39175 | 152.24818 | 8019 ft | 195 kts | 265° |
| 2026-04-30 10:54 | -27.39234 | 152.23296 | 8019 ft | 195 kts | 265° |
| 2026-04-30 10:54 | -27.39295 | 152.21767 | 8019 ft | 196 kts | 265° |
| 2026-04-30 10:54 | -27.39354 | 152.20230 | 8017 ft | 197 kts | 265° |
| 2026-04-30 10:55 | -27.39413 | 152.18698 | 8014 ft | 195 kts | 265° |
| 2026-04-30 10:55 | -27.39475 | 152.17171 | 8017 ft | 195 kts | 265° |
| 2026-04-30 10:55 | -27.39536 | 152.15660 | 8017 ft | 196 kts | 265° |
| 2026-04-30 10:55 | -27.39596 | 152.14125 | 8016 ft | 196 kts | 265° |
| 2026-04-30 10:56 | -27.39659 | 152.12596 | 8016 ft | 196 kts | 265° |
| 2026-04-30 10:56 | -27.39719 | 152.11044 | 8019 ft | 201 kts | 266° |
| 2026-04-30 10:56 | -27.39779 | 152.09457 | 8019 ft | 204 kts | 265° |
| 2026-04-30 10:56 | -27.39843 | 152.07858 | 8021 ft | 205 kts | 265° |
| 2026-04-30 10:57 | -27.39906 | 152.06251 | 8010 ft | 206 kts | 265° |
| 2026-04-30 10:57 | -27.39967 | 152.04644 | 8015 ft | 206 kts | 265° |
| 2026-04-30 10:57 | -27.40031 | 152.03039 | 8017 ft | 206 kts | 265° |
| 2026-04-30 10:57 | -27.40092 | 152.01454 | 8014 ft | 205 kts | 265° |
| 2026-04-30 10:58 | -27.40154 | 151.99852 | 8013 ft | 205 kts | 265° |
| 2026-04-30 10:58 | -27.40215 | 151.98252 | 8014 ft | 205 kts | 265° |
| 2026-04-30 10:58 | -27.40276 | 151.96648 | 8015 ft | 205 kts | 265° |
| 2026-04-30 10:58 | -27.40336 | 151.95044 | 8014 ft | 205 kts | 265° |
| 2026-04-30 10:59 | -27.40397 | 151.93440 | 8019 ft | 205 kts | 265° |
| 2026-04-30 10:59 | -27.40459 | 151.91835 | 8013 ft | 205 kts | 265° |
| 2026-04-30 10:59 | -27.40522 | 151.90231 | 8014 ft | 205 kts | 265° |
| 2026-04-30 10:59 | -27.40581 | 151.88625 | 8013 ft | 206 kts | 265° |
| 2026-04-30 11:00 | -27.40640 | 151.87015 | 8008 ft | 206 kts | 265° |
| 2026-04-30 11:00 | -27.40698 | 151.85430 | 8014 ft | 205 kts | 265° |
| 2026-04-30 11:00 | -27.40758 | 151.83822 | 8012 ft | 206 kts | 265° |
| 2026-04-30 11:00 | -27.40819 | 151.82212 | 8013 ft | 206 kts | 265° |
| 2026-04-30 11:01 | -27.40878 | 151.80600 | 8009 ft | 206 kts | 265° |
| 2026-04-30 11:01 | -27.40937 | 151.78994 | 8009 ft | 205 kts | 265° |
| 2026-04-30 11:01 | -27.40996 | 151.77389 | 8009 ft | 205 kts | 265° |
| 2026-04-30 11:01 | -27.41056 | 151.75781 | 8009 ft | 206 kts | 265° |
| 2026-04-30 11:02 | -27.41078 | 151.74175 | 8008 ft | 206 kts | 274° |
| 2026-04-30 11:02 | -27.40654 | 151.72646 | 8008 ft | 206 kts | 299° |
| 2026-04-30 11:02 | -27.39907 | 151.71280 | 8008 ft | 205 kts | 303° |
| 2026-04-30 11:02 | -27.39161 | 151.69911 | 8009 ft | 205 kts | 303° |
| 2026-04-30 11:03 | -27.38417 | 151.68537 | 8008 ft | 206 kts | 303° |
| 2026-04-30 11:03 | -27.37669 | 151.67163 | 8009 ft | 206 kts | 303° |
| 2026-04-30 11:03 | -27.36928 | 151.65805 | 8011 ft | 206 kts | 303° |
| 2026-04-30 11:04 | -27.35428 | 151.63053 | 8010 ft | 206 kts | 303° |
| 2026-04-30 11:04 | -27.34685 | 151.61687 | 8007 ft | 204 kts | 302° |
| 2026-04-30 11:04 | -27.33948 | 151.60328 | 8009 ft | 203 kts | 303° |
| 2026-04-30 11:04 | -27.33210 | 151.58976 | 8003 ft | 203 kts | 302° |
| 2026-04-30 11:05 | -27.32471 | 151.57623 | 8008 ft | 203 kts | 303° |
| 2026-04-30 11:05 | -27.31730 | 151.56270 | 8007 ft | 203 kts | 303° |
| 2026-04-30 11:05 | -27.30990 | 151.54918 | 8010 ft | 203 kts | 303° |
| 2026-04-30 11:05 | -27.30260 | 151.53583 | 8009 ft | 203 kts | 303° |
| 2026-04-30 11:06 | -27.29521 | 151.52232 | 8008 ft | 203 kts | 303° |
| 2026-04-30 11:06 | -27.28783 | 151.50882 | 7873 ft | 202 kts | 302° |
| 2026-04-30 11:06 | -27.28064 | 151.49560 | 7424 ft | 198 kts | 303° |
| 2026-04-30 11:06 | -27.27341 | 151.48243 | 6945 ft | 199 kts | 303° |
| 2026-04-30 11:07 | -27.26614 | 151.46917 | 6450 ft | 200 kts | 303° |
| 2026-04-30 11:07 | -27.25878 | 151.45582 | 5947 ft | 201 kts | 304° |
| 2026-04-30 11:07 | -27.25143 | 151.44244 | 5463 ft | 202 kts | 304° |
| 2026-04-30 11:07 | -27.24408 | 151.42900 | 4969 ft | 202 kts | 304° |
| 2026-04-30 11:08 | -27.23923 | 151.42013 | 4632 ft | 201 kts | 304° |
| 2026-04-30 11:08 | -27.22954 | 151.40243 | 3977 ft | 200 kts | 304° |
| 2026-04-30 11:08 | -27.22228 | 151.38909 | 3487 ft | 200 kts | 304° |
| 2026-04-30 11:08 | -27.21497 | 151.37585 | 2990 ft | 198 kts | 304° |
| 2026-04-30 11:09 | -27.20775 | 151.36277 | 2485 ft | 194 kts | 303° |
| 2026-04-30 11:09 | -27.20094 | 151.35030 | 2201 ft | 175 kts | 302° |
| 2026-04-30 11:09 | -27.19532 | 151.33975 | 2194 ft | 148 kts | 303° |
| 2026-04-30 11:09 | -27.18953 | 151.32927 | 2203 ft | 167 kts | 306° |
| 2026-04-30 11:10 | -27.18302 | 151.31789 | 2206 ft | 178 kts | 304° |
| 2026-04-30 11:10 | -27.17647 | 151.30590 | 2204 ft | 181 kts | 303° |
| 2026-04-30 11:10 | -27.17210 | 151.29786 | 2205 ft | 182 kts | 303° |
| 2026-04-30 11:10 | -27.16540 | 151.28576 | 2203 ft | 182 kts | 307° |
| 2026-04-30 11:11 | -27.15332 | 151.27378 | 2189 ft | 157 kts | 326° |
| 2026-04-30 11:11 | -27.14799 | 151.26926 | 2183 ft | 134 kts | 326° |
| 2026-04-30 11:11 | -27.13996 | 151.26211 | 2205 ft | 149 kts | 314° |
| 2026-04-30 11:11 | -27.14118 | 151.25447 | 2017 ft | 93 kts | 192° |
| 2026-04-30 11:12 | -27.14915 | 151.25442 | 1421 ft | 78 kts | 152° |
| 2026-04-30 11:12 | -27.15169 | 151.25664 | 1249 ft | 61 kts | 133° |
| 2026-04-30 11:12 | -27.15528 | 151.26029 | 1148 ft | 41 kts | 138° |
| 2026-04-30 11:12 | -27.15640 | 151.26144 | 1145 ft | 31 kts | 138° |
| 2026-04-30 11:13 | -27.15852 | 151.26351 | 1147 ft | 48 kts | 139° |
| 2026-04-30 11:13 | -27.16061 | 151.26563 | 1145 ft | 37 kts | 139° |
| 2026-04-30 11:13 | -27.16227 | 151.26726 | 1142 ft | 19 kts | 137° |
| 2026-04-30 11:13 | -27.16348 | 151.26823 | 1141 ft | 25 kts | 189° |
| 2026-04-30 11:14 | -27.16429 | 151.26704 | 1142 ft | 11 kts | 296° |
| 2026-04-30 11:14 | -27.16414 | 151.26689 | 1144 ft | 6 kts | 321° |
| 2026-04-30 11:14 | -27.16395 | 151.26666 | 1141 ft | 0 kts | 218° |